Kezdőlap
METAR-TAF:

METAR-TAF

Repülőterek :

Taskent, Üzbegisztán

földrajzi szélesség: 41-16N, földrajzi hosszúság: 069-16E, magasság: 489 m

Jelenlegi meteorológiai megfigyelések

A jelentés 46 perccel ezelõtt készült, 03:00 UTC
Északkeleti szél 6 kt
Hőmérséklet -1°C
Páratartalom 69%
Légköri nyomás 1023 hPa
Látótávolság 10 km, vagy több
felhőtlen 1500 m magasságban, és nincs gomolyfelhõ

METAR: UTTT 230300Z 05006KT CAVOK M01/M06 Q1023 R26R/CLRD70 NOSIG

Idő: 08:46 (03:46 UTC)

Előrejelzés

A jelentés 4 órával és 46 perccel ezelõtt készült, 23:00 UTC
Az előrejelzés 23-én 00 óra UTC és 23-én 24 óra UTC között érvényes
Kelet-északkeleti szél 10 kt
Látótávolság: 5000 m
Párásság
23-én 00 óra UTC és 23-én 04 óra UTC között ideiglenes
Látótávolság: 2000 m
Szórványos felhőzet 500 lábon
Párásság

TAF: UTTT 222300Z 2300/2324 07010KT 5000 BR NSC TEMPO 2300/2304 2000 BR SCT005

Meteorológiai megfigyelések és előrejelzések több, mint 4000 repülőtéren (METAR és TAF jelentéseket).

A térképen piros és sárga pontok jelzik az elérhető meteorológiai állomásokat.

Mozgassa az egeret a pont fölött, hogy megjelenjen az állomás neve.

Azután kattintson az időjárási megfigyelések és előrejelzések megtekintéséhez.

A térkép megváltoztatása: kattintson a fekete keresztel jelölt zöld gombra ráközelítéshez, a vonallal jelölt zöld gombra távolításhoz, vagy a zöld nyilakra a szomszédos térképek eléréséhez.


METAR-TAF: